Terminal Aerodrome Forecast
Issued by NWS

Home | Current Version | Previous Version | Graphics & Text | Print | Product List | Glossary On
Versions: 1 2 3 4 5 6 7 8 9 10 11 12 13 14 15 16 17 18
782
FTUS43 KUNR 231720
TAFGCC
TAF
KGCC 231720Z 2318/2418 36016G26KT 2SM -SHRA BR OVC006
     FM240200 35013KT P6SM OVC008
     FM240800 33008KT P6SM SCT015 SCT080=

USA.gov is the U.S. government's official web portal to all federal, state and local government web resources and services.